sensor_id;sensor_type;location;lat;lon;timestamp;temperature;humidity
13850;DHT22;6995;52.618;13.488;2023-05-10T00:00:14;11.10;56.00
13850;DHT22;6995;52.618;13.488;2023-05-10T00:02:40;11.10;56.40
13850;DHT22;6995;52.618;13.488;2023-05-10T00:05:08;11.10;58.10
13850;DHT22;6995;52.618;13.488;2023-05-10T00:07:33;11.10;59.60
13850;DHT22;6995;52.618;13.488;2023-05-10T00:09:59;11.00;60.20
13850;DHT22;6995;52.618;13.488;2023-05-10T00:12:25;11.00;61.00
13850;DHT22;6995;52.618;13.488;2023-05-10T00:14:50;11.00;96.40
13850;DHT22;6995;52.618;13.488;2023-05-10T00:17:16;11.00;63.50
13850;DHT22;6995;52.618;13.488;2023-05-10T00:19:41;11.00;64.70
13850;DHT22;6995;52.618;13.488;2023-05-10T00:22:17;10.90;66.50
13850;DHT22;6995;52.618;13.488;2023-05-10T00:24:43;10.90;65.50
13850;DHT22;6995;52.618;13.488;2023-05-10T00:27:08;10.80;69.00
13850;DHT22;6995;52.618;13.488;2023-05-10T00:29:34;10.70;69.00
13850;DHT22;6995;52.618;13.488;2023-05-10T00:32:00;10.70;70.00
13850;DHT22;6995;52.618;13.488;2023-05-10T00:34:25;10.70;71.30
13850;DHT22;6995;52.618;13.488;2023-05-10T00:36:51;10.60;73.40
13850;DHT22;6995;52.618;13.488;2023-05-10T00:39:17;10.60;73.60
13850;DHT22;6995;52.618;13.488;2023-05-10T00:41:42;10.70;74.90
13850;DHT22;6995;52.618;13.488;2023-05-10T00:44:08;10.60;74.50
13850;DHT22;6995;52.618;13.488;2023-05-10T00:46:34;10.60;77.80
13850;DHT22;6995;52.618;13.488;2023-05-10T00:49:00;10.60;77.90
13850;DHT22;6995;52.618;13.488;2023-05-10T00:51:26;10.50;81.20
13850;DHT22;6995;52.618;13.488;2023-05-10T00:53:51;10.50;82.90
13850;DHT22;6995;52.618;13.488;2023-05-10T00:56:17;10.50;81.80
13850;DHT22;6995;52.618;13.488;2023-05-10T00:58:43;10.50;80.40
13850;DHT22;6995;52.618;13.488;2023-05-10T01:01:09;10.50;80.80
13850;DHT22;6995;52.618;13.488;2023-05-10T01:03:36;10.50;83.50
13850;DHT22;6995;52.618;13.488;2023-05-10T01:06:02;10.60;78.90
13850;DHT22;6995;52.618;13.488;2023-05-10T01:08:28;10.50;82.80
13850;DHT22;6995;52.618;13.488;2023-05-10T01:10:54;10.50;81.60
13850;DHT22;6995;52.618;13.488;2023-05-10T01:13:31;10.60;82.20
13850;DHT22;6995;52.618;13.488;2023-05-10T01:15:58;10.50;85.20
13850;DHT22;6995;52.618;13.488;2023-05-10T01:18:25;10.50;85.60
13850;DHT22;6995;52.618;13.488;2023-05-10T01:21:04;10.50;99.90
13850;DHT22;6995;52.618;13.488;2023-05-10T01:37:40;10.40;99.90
13850;DHT22;6995;52.618;13.488;2023-05-10T01:42:50;10.30;90.10
13850;DHT22;6995;52.618;13.488;2023-05-10T01:47:58;10.40;89.20
13850;DHT22;6995;52.618;13.488;2023-05-10T01:50:30;10.40;88.70
13850;DHT22;6995;52.618;13.488;2023-05-10T01:52:58;10.40;90.80
13850;DHT22;6995;52.618;13.488;2023-05-10T01:55:27;10.30;90.90
13850;DHT22;6995;52.618;13.488;2023-05-10T01:58:09;10.30;90.50
13850;DHT22;6995;52.618;13.488;2023-05-10T02:00:35;10.30;90.90
13850;DHT22;6995;52.618;13.488;2023-05-10T02:03:05;10.40;86.90
13850;DHT22;6995;52.618;13.488;2023-05-10T02:05:32;10.40;88.20
13850;DHT22;6995;52.618;13.488;2023-05-10T02:07:59;10.40;90.10
13850;DHT22;6995;52.618;13.488;2023-05-10T02:10:27;10.30;87.60
13850;DHT22;6995;52.618;13.488;2023-05-10T02:12:53;10.30;91.00
13850;DHT22;6995;52.618;13.488;2023-05-10T02:15:22;10.30;99.90
13850;DHT22;6995;52.618;13.488;2023-05-10T02:17:48;10.30;90.70
13850;DHT22;6995;52.618;13.488;2023-05-10T02:20:16;10.20;90.60
13850;DHT22;6995;52.618;13.488;2023-05-10T02:22:42;10.20;93.30
13850;DHT22;6995;52.618;13.488;2023-05-10T02:25:10;10.20;94.50
13850;DHT22;6995;52.618;13.488;2023-05-10T02:27:38;10.20;93.30
13850;DHT22;6995;52.618;13.488;2023-05-10T02:30:06;10.20;93.40
13850;DHT22;6995;52.618;13.488;2023-05-10T02:32:33;10.20;94.90
13850;DHT22;6995;52.618;13.488;2023-05-10T02:35:01;10.10;96.00
13850;DHT22;6995;52.618;13.488;2023-05-10T02:37:28;10.10;97.10
13850;DHT22;6995;52.618;13.488;2023-05-10T02:39:55;10.10;96.00
13850;DHT22;6995;52.618;13.488;2023-05-10T02:42:25;10.10;95.20
13850;DHT22;6995;52.618;13.488;2023-05-10T02:44:54;10.00;95.50
13850;DHT22;6995;52.618;13.488;2023-05-10T02:47:21;10.00;98.40
13850;DHT22;6995;52.618;13.488;2023-05-10T02:49:47;10.00;97.50
13850;DHT22;6995;52.618;13.488;2023-05-10T02:52:16;10.00;94.20
13850;DHT22;6995;52.618;13.488;2023-05-10T02:54:45;10.00;95.20
13850;DHT22;6995;52.618;13.488;2023-05-10T02:57:16;10.00;96.40
13850;DHT22;6995;52.618;13.488;2023-05-10T02:59:43;10.00;97.00
13850;DHT22;6995;52.618;13.488;2023-05-10T03:02:12;10.00;95.90
13850;DHT22;6995;52.618;13.488;2023-05-10T03:04:38;10.00;96.40
13850;DHT22;6995;52.618;13.488;2023-05-10T03:07:03;10.00;96.20
13850;DHT22;6995;52.618;13.488;2023-05-10T03:09:29;10.00;95.70
13850;DHT22;6995;52.618;13.488;2023-05-10T03:12:15;9.90;97.40
13850;DHT22;6995;52.618;13.488;2023-05-10T03:14:56;9.90;99.20
13850;DHT22;6995;52.618;13.488;2023-05-10T03:17:47;9.90;94.20
13850;DHT22;6995;52.618;13.488;2023-05-10T03:20:22;9.90;98.60
13850;DHT22;6995;52.618;13.488;2023-05-10T03:25:42;9.90;96.10
13850;DHT22;6995;52.618;13.488;2023-05-10T03:28:09;9.90;99.90
13850;DHT22;6995;52.618;13.488;2023-05-10T03:30:35;9.80;99.90
13850;DHT22;6995;52.618;13.488;2023-05-10T03:33:08;9.90;97.60
13850;DHT22;6995;52.618;13.488;2023-05-10T03:35:34;9.90;99.90
13850;DHT22;6995;52.618;13.488;2023-05-10T03:38:00;9.90;99.90
13850;DHT22;6995;52.618;13.488;2023-05-10T03:40:26;9.90;99.90
13850;DHT22;6995;52.618;13.488;2023-05-10T03:42:55;9.90;99.90
13850;DHT22;6995;52.618;13.488;2023-05-10T03:45:20;9.90;99.30
13850;DHT22;6995;52.618;13.488;2023-05-10T03:47:46;10.00;99.90
13850;DHT22;6995;52.618;13.488;2023-05-10T03:50:12;10.00;98.10
13850;DHT22;6995;52.618;13.488;2023-05-10T03:52:37;9.90;99.90
13850;DHT22;6995;52.618;13.488;2023-05-10T03:55:05;10.00;99.90
13850;DHT22;6995;52.618;13.488;2023-05-10T03:57:31;10.00;99.90
13850;DHT22;6995;52.618;13.488;2023-05-10T03:59:56;10.00;99.90
13850;DHT22;6995;52.618;13.488;2023-05-10T04:02:24;10.00;99.60
13850;DHT22;6995;52.618;13.488;2023-05-10T04:04:50;10.00;96.70
13850;DHT22;6995;52.618;13.488;2023-05-10T04:07:16;10.10;98.60
13850;DHT22;6995;52.618;13.488;2023-05-10T04:09:42;10.10;98.40
13850;DHT22;6995;52.618;13.488;2023-05-10T04:12:07;10.10;97.70
13850;DHT22;6995;52.618;13.488;2023-05-10T04:14:33;10.20;97.40
13850;DHT22;6995;52.618;13.488;2023-05-10T04:16:59;10.20;95.70
13850;DHT22;6995;52.618;13.488;2023-05-10T04:19:29;10.20;97.00
13850;DHT22;6995;52.618;13.488;2023-05-10T04:21:54;10.30;96.00
13850;DHT22;6995;52.618;13.488;2023-05-10T04:24:20;10.40;91.40
13850;DHT22;6995;52.618;13.488;2023-05-10T04:26:46;10.50;89.20
13850;DHT22;6995;52.618;13.488;2023-05-10T04:29:11;10.50;91.00
13850;DHT22;6995;52.618;13.488;2023-05-10T04:31:37;10.60;92.40
13850;DHT22;6995;52.618;13.488;2023-05-10T04:34:02;10.70;90.80
13850;DHT22;6995;52.618;13.488;2023-05-10T04:36:28;10.70;87.10
13850;DHT22;6995;52.618;13.488;2023-05-10T04:38:54;10.80;86.80
13850;DHT22;6995;52.618;13.488;2023-05-10T04:41:19;10.80;86.80
13850;DHT22;6995;52.618;13.488;2023-05-10T04:43:46;10.90;88.90
13850;DHT22;6995;52.618;13.488;2023-05-10T04:46:12;10.90;86.40
13850;DHT22;6995;52.618;13.488;2023-05-10T04:48:37;11.10;88.70
13850;DHT22;6995;52.618;13.488;2023-05-10T04:51:03;11.10;81.60
13850;DHT22;6995;52.618;13.488;2023-05-10T04:53:29;11.20;81.30
13850;DHT22;6995;52.618;13.488;2023-05-10T04:55:55;11.30;83.10
13850;DHT22;6995;52.618;13.488;2023-05-10T04:58:20;11.30;81.80
13850;DHT22;6995;52.618;13.488;2023-05-10T05:00:46;11.50;80.10
13850;DHT22;6995;52.618;13.488;2023-05-10T05:03:12;11.60;78.30
13850;DHT22;6995;52.618;13.488;2023-05-10T05:05:37;11.70;79.20
13850;DHT22;6995;52.618;13.488;2023-05-10T05:08:03;11.70;77.50
13850;DHT22;6995;52.618;13.488;2023-05-10T05:10:29;11.80;72.20
13850;DHT22;6995;52.618;13.488;2023-05-10T05:12:55;11.90;75.90
13850;DHT22;6995;52.618;13.488;2023-05-10T05:15:21;12.00;70.00
13850;DHT22;6995;52.618;13.488;2023-05-10T05:17:46;12.20;70.00
13850;DHT22;6995;52.618;13.488;2023-05-10T05:20:12;12.30;71.10
13850;DHT22;6995;52.618;13.488;2023-05-10T05:22:38;12.40;67.60
13850;DHT22;6995;52.618;13.488;2023-05-10T05:25:05;12.40;67.10
13850;DHT22;6995;52.618;13.488;2023-05-10T05:27:31;12.50;70.70
13850;DHT22;6995;52.618;13.488;2023-05-10T05:29:57;12.70;66.00
13850;DHT22;6995;52.618;13.488;2023-05-10T05:32:24;12.80;64.80
13850;DHT22;6995;52.618;13.488;2023-05-10T05:34:50;12.90;65.20
13850;DHT22;6995;52.618;13.488;2023-05-10T05:37:17;13.10;61.80
13850;DHT22;6995;52.618;13.488;2023-05-10T05:39:43;13.20;60.50
13850;DHT22;6995;52.618;13.488;2023-05-10T05:42:10;13.30;94.60
13850;DHT22;6995;52.618;13.488;2023-05-10T05:44:36;13.40;59.80
13850;DHT22;6995;52.618;13.488;2023-05-10T05:47:01;13.50;58.50
13850;DHT22;6995;52.618;13.488;2023-05-10T05:49:27;13.60;54.20
13850;DHT22;6995;52.618;13.488;2023-05-10T05:51:53;13.70;54.80
13850;DHT22;6995;52.618;13.488;2023-05-10T05:54:18;13.80;54.50
13850;DHT22;6995;52.618;13.488;2023-05-10T05:56:44;13.90;52.40
13850;DHT22;6995;52.618;13.488;2023-05-10T05:59:10;14.00;50.50
13850;DHT22;6995;52.618;13.488;2023-05-10T06:01:36;14.00;50.00
13850;DHT22;6995;52.618;13.488;2023-05-10T06:04:02;14.10;48.60
13850;DHT22;6995;52.618;13.488;2023-05-10T06:06:28;14.20;47.40
13850;DHT22;6995;52.618;13.488;2023-05-10T06:08:54;14.30;47.00
13850;DHT22;6995;52.618;13.488;2023-05-10T06:11:20;14.40;44.60
13850;DHT22;6995;52.618;13.488;2023-05-10T06:13:47;14.50;44.40
13850;DHT22;6995;52.618;13.488;2023-05-10T06:16:13;14.50;43.90
13850;DHT22;6995;52.618;13.488;2023-05-10T06:18:39;14.60;42.80
13850;DHT22;6995;52.618;13.488;2023-05-10T06:21:05;14.70;42.80
13850;DHT22;6995;52.618;13.488;2023-05-10T06:23:30;14.80;43.00
13850;DHT22;6995;52.618;13.488;2023-05-10T06:25:56;15.00;39.30
13850;DHT22;6995;52.618;13.488;2023-05-10T06:28:21;15.20;42.00
13850;DHT22;6995;52.618;13.488;2023-05-10T06:30:47;15.30;38.60
13850;DHT22;6995;52.618;13.488;2023-05-10T06:33:13;15.40;39.70
13850;DHT22;6995;52.618;13.488;2023-05-10T06:35:39;15.60;37.40
13850;DHT22;6995;52.618;13.488;2023-05-10T06:38:04;15.60;35.40
13850;DHT22;6995;52.618;13.488;2023-05-10T06:40:30;15.70;36.60
13850;DHT22;6995;52.618;13.488;2023-05-10T06:42:56;15.90;35.80
13850;DHT22;6995;52.618;13.488;2023-05-10T06:45:21;15.90;36.10
13850;DHT22;6995;52.618;13.488;2023-05-10T06:47:47;16.10;34.00
13850;DHT22;6995;52.618;13.488;2023-05-10T06:50:13;16.10;33.90
13850;DHT22;6995;52.618;13.488;2023-05-10T06:52:39;16.00;32.40
13850;DHT22;6995;52.618;13.488;2023-05-10T06:55:05;16.20;31.40
13850;DHT22;6995;52.618;13.488;2023-05-10T06:57:31;16.30;31.20
13850;DHT22;6995;52.618;13.488;2023-05-10T07:00:00;16.50;31.50
13850;DHT22;6995;52.618;13.488;2023-05-10T07:02:26;16.60;31.60
13850;DHT22;6995;52.618;13.488;2023-05-10T07:04:51;16.70;31.40
13850;DHT22;6995;52.618;13.488;2023-05-10T07:07:18;16.70;31.10
13850;DHT22;6995;52.618;13.488;2023-05-10T07:09:44;16.80;30.10
13850;DHT22;6995;52.618;13.488;2023-05-10T07:12:10;16.90;27.00
13850;DHT22;6995;52.618;13.488;2023-05-10T07:14:35;17.00;26.90
13850;DHT22;6995;52.618;13.488;2023-05-10T07:17:01;17.00;27.70
13850;DHT22;6995;52.618;13.488;2023-05-10T07:19:27;17.00;25.90
13850;DHT22;6995;52.618;13.488;2023-05-10T07:21:54;17.10;28.20
13850;DHT22;6995;52.618;13.488;2023-05-10T07:24:20;17.10;53.80
13850;DHT22;6995;52.618;13.488;2023-05-10T07:26:46;17.40;27.20
13850;DHT22;6995;52.618;13.488;2023-05-10T07:29:11;17.50;24.90
13850;DHT22;6995;52.618;13.488;2023-05-10T07:31:37;17.60;23.90
13850;DHT22;6995;52.618;13.488;2023-05-10T07:34:03;17.60;24.10
13850;DHT22;6995;52.618;13.488;2023-05-10T07:36:28;17.40;23.10
13850;DHT22;6995;52.618;13.488;2023-05-10T07:38:54;17.40;24.40
13850;DHT22;6995;52.618;13.488;2023-05-10T07:41:19;17.30;24.10
13850;DHT22;6995;52.618;13.488;2023-05-10T07:43:46;17.40;22.70
13850;DHT22;6995;52.618;13.488;2023-05-10T07:46:12;17.50;22.20
13850;DHT22;6995;52.618;13.488;2023-05-10T07:48:38;17.40;24.50
13850;DHT22;6995;52.618;13.488;2023-05-10T07:51:03;17.40;24.50
13850;DHT22;6995;52.618;13.488;2023-05-10T07:53:29;17.50;23.40
13850;DHT22;6995;52.618;13.488;2023-05-10T07:55:57;17.60;22.00
13850;DHT22;6995;52.618;13.488;2023-05-10T07:58:24;17.70;23.80
13850;DHT22;6995;52.618;13.488;2023-05-10T08:00:50;17.70;20.50
13850;DHT22;6995;52.618;13.488;2023-05-10T08:03:16;17.70;22.20
13850;DHT22;6995;52.618;13.488;2023-05-10T08:05:41;18.00;21.70
13850;DHT22;6995;52.618;13.488;2023-05-10T08:08:07;18.10;19.40
13850;DHT22;6995;52.618;13.488;2023-05-10T08:10:33;18.20;18.40
13850;DHT22;6995;52.618;13.488;2023-05-10T08:12:58;18.20;20.70
13850;DHT22;6995;52.618;13.488;2023-05-10T08:15:24;18.10;19.60
13850;DHT22;6995;52.618;13.488;2023-05-10T08:17:51;18.00;20.50
13850;DHT22;6995;52.618;13.488;2023-05-10T08:20:17;18.10;19.80
13850;DHT22;6995;52.618;13.488;2023-05-10T08:22:45;18.20;22.40
13850;DHT22;6995;52.618;13.488;2023-05-10T08:25:11;18.10;20.60
13850;DHT22;6995;52.618;13.488;2023-05-10T08:27:36;18.00;20.00
13850;DHT22;6995;52.618;13.488;2023-05-10T08:30:02;18.20;20.40
13850;DHT22;6995;52.618;13.488;2023-05-10T08:32:28;18.10;22.70
13850;DHT22;6995;52.618;13.488;2023-05-10T08:34:54;18.10;20.80
13850;DHT22;6995;52.618;13.488;2023-05-10T08:37:20;18.10;19.70
13850;DHT22;6995;52.618;13.488;2023-05-10T08:39:46;18.00;21.10
13850;DHT22;6995;52.618;13.488;2023-05-10T08:42:16;18.10;19.00
13850;DHT22;6995;52.618;13.488;2023-05-10T08:44:47;18.20;21.20
13850;DHT22;6995;52.618;13.488;2023-05-10T08:47:16;18.10;20.00
13850;DHT22;6995;52.618;13.488;2023-05-10T08:49:44;18.20;19.70
13850;DHT22;6995;52.618;13.488;2023-05-10T08:52:15;18.40;19.20
13850;DHT22;6995;52.618;13.488;2023-05-10T08:54:42;18.50;19.20
13850;DHT22;6995;52.618;13.488;2023-05-10T08:57:08;18.70;18.30
13850;DHT22;6995;52.618;13.488;2023-05-10T08:59:34;18.80;17.20
13850;DHT22;6995;52.618;13.488;2023-05-10T09:02:00;18.80;16.80
13850;DHT22;6995;52.618;13.488;2023-05-10T09:04:27;18.90;16.50
13850;DHT22;6995;52.618;13.488;2023-05-10T09:06:53;19.00;17.00
13850;DHT22;6995;52.618;13.488;2023-05-10T09:09:20;19.00;18.30
13850;DHT22;6995;52.618;13.488;2023-05-10T09:11:46;18.90;17.60
13850;DHT22;6995;52.618;13.488;2023-05-10T09:14:13;19.00;17.40
13850;DHT22;6995;52.618;13.488;2023-05-10T09:16:40;19.10;15.60
13850;DHT22;6995;52.618;13.488;2023-05-10T09:19:06;19.10;15.70
13850;DHT22;6995;52.618;13.488;2023-05-10T09:21:35;19.20;15.40
13850;DHT22;6995;52.618;13.488;2023-05-10T09:24:04;19.30;12.40
13850;DHT22;6995;52.618;13.488;2023-05-10T09:26:30;19.50;13.60
13850;DHT22;6995;52.618;13.488;2023-05-10T09:28:58;19.50;13.80
13850;DHT22;6995;52.618;13.488;2023-05-10T09:31:25;19.60;13.30
13850;DHT22;6995;52.618;13.488;2023-05-10T09:34:08;19.70;12.10
13850;DHT22;6995;52.618;13.488;2023-05-10T09:36:33;19.70;13.00
13850;DHT22;6995;52.618;13.488;2023-05-10T09:38:59;19.80;12.40
13850;DHT22;6995;52.618;13.488;2023-05-10T09:41:42;19.90;11.50
13850;DHT22;6995;52.618;13.488;2023-05-10T09:44:07;20.00;10.30
13850;DHT22;6995;52.618;13.488;2023-05-10T09:46:36;20.00;11.60
13850;DHT22;6995;52.618;13.488;2023-05-10T09:49:02;20.00;12.20
13850;DHT22;6995;52.618;13.488;2023-05-10T09:51:27;20.00;11.20
13850;DHT22;6995;52.618;13.488;2023-05-10T09:54:29;19.90;11.90
13850;DHT22;6995;52.618;13.488;2023-05-10T09:56:54;19.90;10.00
13850;DHT22;6995;52.618;13.488;2023-05-10T09:59:20;19.90;11.90
13850;DHT22;6995;52.618;13.488;2023-05-10T10:01:50;19.90;12.10
13850;DHT22;6995;52.618;13.488;2023-05-10T10:04:16;19.90;9.80
13850;DHT22;6995;52.618;13.488;2023-05-10T10:06:42;20.00;9.90
13850;DHT22;6995;52.618;13.488;2023-05-10T10:09:08;20.30;10.80
13850;DHT22;6995;52.618;13.488;2023-05-10T10:11:36;20.50;9.10
13850;DHT22;6995;52.618;13.488;2023-05-10T10:14:02;20.60;10.50
13850;DHT22;6995;52.618;13.488;2023-05-10T10:16:29;20.60;9.10
13850;DHT22;6995;52.618;13.488;2023-05-10T10:18:55;20.60;10.60
13850;DHT22;6995;52.618;13.488;2023-05-10T10:21:22;20.40;9.10
13850;DHT22;6995;52.618;13.488;2023-05-10T10:23:47;20.50;8.30
13850;DHT22;6995;52.618;13.488;2023-05-10T10:26:14;20.60;9.60
13850;DHT22;6995;52.618;13.488;2023-05-10T10:28:57;20.70;6.80
13850;DHT22;6995;52.618;13.488;2023-05-10T10:34:01;20.80;5.00
13850;DHT22;6995;52.618;13.488;2023-05-10T10:36:29;20.90;4.80
13850;DHT22;6995;52.618;13.488;2023-05-10T10:38:59;21.00;3.60
13850;DHT22;6995;52.618;13.488;2023-05-10T10:41:35;21.00;4.60
13850;DHT22;6995;52.618;13.488;2023-05-10T10:47:02;21.00;2.50
13850;DHT22;6995;52.618;13.488;2023-05-10T10:49:32;21.10;3.10
13850;DHT22;6995;52.618;13.488;2023-05-10T10:54:40;21.30;3.20
13850;DHT22;6995;52.618;13.488;2023-05-10T10:57:14;21.40;2.20
13850;DHT22;6995;52.618;13.488;2023-05-10T10:59:43;21.50;1.80
13850;DHT22;6995;52.618;13.488;2023-05-10T11:02:09;21.60;1.50
13850;DHT22;6995;52.618;13.488;2023-05-10T11:04:42;21.40;1.30
13850;DHT22;6995;52.618;13.488;2023-05-10T11:07:18;21.50;18.60
13850;DHT22;6995;52.618;13.488;2023-05-10T11:09:46;21.60;1.00
13850;DHT22;6995;52.618;13.488;2023-05-10T11:12:15;21.80;1.00
13850;DHT22;6995;52.618;13.488;2023-05-10T11:14:41;21.90;1.00
13850;DHT22;6995;52.618;13.488;2023-05-10T11:17:24;22.00;1.00
13850;DHT22;6995;52.618;13.488;2023-05-10T11:20:13;22.10;1.00
13850;DHT22;6995;52.618;13.488;2023-05-10T11:22:49;22.20;1.00
13850;DHT22;6995;52.618;13.488;2023-05-10T11:25:16;22.40;1.00
13850;DHT22;6995;52.618;13.488;2023-05-10T11:27:42;22.40;1.00
13850;DHT22;6995;52.618;13.488;2023-05-10T11:30:09;22.60;1.00
13850;DHT22;6995;52.618;13.488;2023-05-10T11:32:38;22.70;1.00
13850;DHT22;6995;52.618;13.488;2023-05-10T11:35:08;22.70;1.00
13850;DHT22;6995;52.618;13.488;2023-05-10T11:37:34;22.70;1.00
13850;DHT22;6995;52.618;13.488;2023-05-10T11:39:59;22.80;1.00
13850;DHT22;6995;52.618;13.488;2023-05-10T11:42:26;22.90;1.00
13850;DHT22;6995;52.618;13.488;2023-05-10T11:44:52;23.10;1.00
13850;DHT22;6995;52.618;13.488;2023-05-10T11:47:18;23.10;1.00
13850;DHT22;6995;52.618;13.488;2023-05-10T11:49:44;23.30;1.00
13850;DHT22;6995;52.618;13.488;2023-05-10T11:52:10;23.60;1.00
13850;DHT22;6995;52.618;13.488;2023-05-10T11:54:52;23.70;1.00
13850;DHT22;6995;52.618;13.488;2023-05-10T11:57:18;23.80;1.00
13850;DHT22;6995;52.618;13.488;2023-05-10T11:59:45;23.90;1.00
13850;DHT22;6995;52.618;13.488;2023-05-10T12:02:12;24.10;1.00
13850;DHT22;6995;52.618;13.488;2023-05-10T12:04:38;24.20;1.00
13850;DHT22;6995;52.618;13.488;2023-05-10T12:07:03;24.30;5.70
13850;DHT22;6995;52.618;13.488;2023-05-10T12:09:29;24.40;1.00
13850;DHT22;6995;52.618;13.488;2023-05-10T12:11:56;24.30;1.00
13850;DHT22;6995;52.618;13.488;2023-05-10T12:14:24;24.40;1.00
13850;DHT22;6995;52.618;13.488;2023-05-10T12:16:50;24.60;1.00
13850;DHT22;6995;52.618;13.488;2023-05-10T12:19:19;25.00;1.00
13850;DHT22;6995;52.618;13.488;2023-05-10T12:21:47;24.80;1.00
13850;DHT22;6995;52.618;13.488;2023-05-10T12:24:12;24.90;1.00
13850;DHT22;6995;52.618;13.488;2023-05-10T12:26:38;25.30;1.00
13850;DHT22;6995;52.618;13.488;2023-05-10T12:29:17;25.90;1.00
13850;DHT22;6995;52.618;13.488;2023-05-10T12:34:34;26.30;1.00
13850;DHT22;6995;52.618;13.488;2023-05-10T12:37:02;26.70;1.00
13850;DHT22;6995;52.618;13.488;2023-05-10T12:39:41;26.80;1.00
13850;DHT22;6995;52.618;13.488;2023-05-10T12:42:08;27.10;1.00
13850;DHT22;6995;52.618;13.488;2023-05-10T12:44:33;27.50;1.00
13850;DHT22;6995;52.618;13.488;2023-05-10T12:46:59;27.80;1.00
13850;DHT22;6995;52.618;13.488;2023-05-10T12:49:25;28.30;1.00
13850;DHT22;6995;52.618;13.488;2023-05-10T12:51:50;28.20;1.00
13850;DHT22;6995;52.618;13.488;2023-05-10T12:54:16;28.70;1.00
13850;DHT22;6995;52.618;13.488;2023-05-10T12:56:41;28.70;1.00
13850;DHT22;6995;52.618;13.488;2023-05-10T12:59:08;28.50;1.00
13850;DHT22;6995;52.618;13.488;2023-05-10T13:01:33;28.50;1.00
13850;DHT22;6995;52.618;13.488;2023-05-10T13:03:59;29.00;1.00
13850;DHT22;6995;52.618;13.488;2023-05-10T13:06:25;28.80;1.00
13850;DHT22;6995;52.618;13.488;2023-05-10T13:08:51;28.40;1.00
13850;DHT22;6995;52.618;13.488;2023-05-10T13:11:17;29.30;1.00
13850;DHT22;6995;52.618;13.488;2023-05-10T13:13:45;29.40;1.00
13850;DHT22;6995;52.618;13.488;2023-05-10T13:16:10;29.50;1.00
13850;DHT22;6995;52.618;13.488;2023-05-10T13:18:36;29.90;1.00
13850;DHT22;6995;52.618;13.488;2023-05-10T13:21:02;30.10;1.00
13850;DHT22;6995;52.618;13.488;2023-05-10T13:23:29;29.70;1.00
13850;DHT22;6995;52.618;13.488;2023-05-10T13:25:54;30.70;1.00
13850;DHT22;6995;52.618;13.488;2023-05-10T13:28:20;30.90;1.00
13850;DHT22;6995;52.618;13.488;2023-05-10T13:30:46;30.70;1.00
13850;DHT22;6995;52.618;13.488;2023-05-10T13:33:11;30.50;1.00
13850;DHT22;6995;52.618;13.488;2023-05-10T13:35:37;31.00;1.00
13850;DHT22;6995;52.618;13.488;2023-05-10T13:38:03;31.20;1.00
13850;DHT22;6995;52.618;13.488;2023-05-10T13:40:28;31.40;1.00
13850;DHT22;6995;52.618;13.488;2023-05-10T13:42:54;31.10;1.00
13850;DHT22;6995;52.618;13.488;2023-05-10T13:45:20;30.90;1.00
13850;DHT22;6995;52.618;13.488;2023-05-10T13:47:46;31.10;1.00
13850;DHT22;6995;52.618;13.488;2023-05-10T13:50:11;31.00;1.00
13850;DHT22;6995;52.618;13.488;2023-05-10T13:52:37;31.10;1.00
13850;DHT22;6995;52.618;13.488;2023-05-10T13:55:03;30.80;1.00
13850;DHT22;6995;52.618;13.488;2023-05-10T13:57:28;30.50;1.00
13850;DHT22;6995;52.618;13.488;2023-05-10T13:59:55;30.90;1.00
13850;DHT22;6995;52.618;13.488;2023-05-10T14:02:22;31.20;1.00
13850;DHT22;6995;52.618;13.488;2023-05-10T14:04:48;30.70;1.00
13850;DHT22;6995;52.618;13.488;2023-05-10T14:07:13;30.80;1.00
13850;DHT22;6995;52.618;13.488;2023-05-10T14:09:39;31.20;1.00
13850;DHT22;6995;52.618;13.488;2023-05-10T14:12:05;31.30;1.00
13850;DHT22;6995;52.618;13.488;2023-05-10T14:14:30;31.40;1.00
13850;DHT22;6995;52.618;13.488;2023-05-10T14:16:56;31.20;1.00
13850;DHT22;6995;52.618;13.488;2023-05-10T14:19:22;31.50;1.00
13850;DHT22;6995;52.618;13.488;2023-05-10T14:21:47;31.80;1.00
13850;DHT22;6995;52.618;13.488;2023-05-10T14:24:13;31.30;1.00
13850;DHT22;6995;52.618;13.488;2023-05-10T14:26:39;31.20;1.00
13850;DHT22;6995;52.618;13.488;2023-05-10T14:29:04;31.60;1.00
13850;DHT22;6995;52.618;13.488;2023-05-10T14:31:30;31.80;1.00
13850;DHT22;6995;52.618;13.488;2023-05-10T14:33:56;31.60;1.00
13850;DHT22;6995;52.618;13.488;2023-05-10T14:36:22;32.30;1.00
13850;DHT22;6995;52.618;13.488;2023-05-10T14:38:48;32.30;1.00
13850;DHT22;6995;52.618;13.488;2023-05-10T14:41:15;32.30;1.00
13850;DHT22;6995;52.618;13.488;2023-05-10T14:43:42;32.70;1.00
13850;DHT22;6995;52.618;13.488;2023-05-10T14:46:08;32.50;1.00
13850;DHT22;6995;52.618;13.488;2023-05-10T14:48:34;32.90;1.00
13850;DHT22;6995;52.618;13.488;2023-05-10T14:51:00;33.30;1.00
13850;DHT22;6995;52.618;13.488;2023-05-10T14:53:25;33.20;1.00
13850;DHT22;6995;52.618;13.488;2023-05-10T14:55:51;33.40;1.00
13850;DHT22;6995;52.618;13.488;2023-05-10T14:58:17;32.70;1.00
13850;DHT22;6995;52.618;13.488;2023-05-10T15:00:43;31.70;1.00
13850;DHT22;6995;52.618;13.488;2023-05-10T15:03:09;31.70;1.00
13850;DHT22;6995;52.618;13.488;2023-05-10T15:05:34;31.90;1.00
13850;DHT22;6995;52.618;13.488;2023-05-10T15:08:02;31.00;1.00
13850;DHT22;6995;52.618;13.488;2023-05-10T15:10:28;29.20;1.00
13850;DHT22;6995;52.618;13.488;2023-05-10T15:12:53;29.70;1.00
13850;DHT22;6995;52.618;13.488;2023-05-10T15:15:19;30.70;1.00
13850;DHT22;6995;52.618;13.488;2023-05-10T15:17:45;31.50;1.00
13850;DHT22;6995;52.618;13.488;2023-05-10T15:20:11;32.00;1.00
13850;DHT22;6995;52.618;13.488;2023-05-10T15:22:37;31.90;1.00
13850;DHT22;6995;52.618;13.488;2023-05-10T15:25:03;30.60;1.00
13850;DHT22;6995;52.618;13.488;2023-05-10T15:27:29;29.90;1.00
13850;DHT22;6995;52.618;13.488;2023-05-10T15:29:55;29.00;1.00
13850;DHT22;6995;52.618;13.488;2023-05-10T15:32:21;28.10;1.00
13850;DHT22;6995;52.618;13.488;2023-05-10T15:34:46;27.00;1.00
13850;DHT22;6995;52.618;13.488;2023-05-10T15:37:12;26.20;1.00
13850;DHT22;6995;52.618;13.488;2023-05-10T15:39:38;25.80;1.00
13850;DHT22;6995;52.618;13.488;2023-05-10T15:42:03;27.40;1.00
13850;DHT22;6995;52.618;13.488;2023-05-10T15:44:29;29.00;1.00
13850;DHT22;6995;52.618;13.488;2023-05-10T15:46:55;30.40;1.00
13850;DHT22;6995;52.618;13.488;2023-05-10T15:49:21;31.30;1.00
13850;DHT22;6995;52.618;13.488;2023-05-10T15:51:46;31.70;1.00
13850;DHT22;6995;52.618;13.488;2023-05-10T15:54:12;32.40;1.00
13850;DHT22;6995;52.618;13.488;2023-05-10T15:56:38;33.20;1.00
13850;DHT22;6995;52.618;13.488;2023-05-10T15:59:04;33.10;1.00
13850;DHT22;6995;52.618;13.488;2023-05-10T16:01:30;32.40;1.00
13850;DHT22;6995;52.618;13.488;2023-05-10T16:03:56;31.30;1.00
13850;DHT22;6995;52.618;13.488;2023-05-10T16:06:22;30.00;1.00
13850;DHT22;6995;52.618;13.488;2023-05-10T16:08:48;29.60;1.00